createdAt,value
2023-02-05T00:01:27.120Z,66.43
2023-02-05T00:04:00.022Z,65.56
2023-02-05T00:06:32.929Z,65.62
2023-02-05T00:09:07.310Z,65.95
2023-02-05T00:11:40.582Z,66.43
2023-02-05T00:14:13.462Z,66.05
2023-02-05T00:16:46.408Z,66.45
2023-02-05T00:19:19.300Z,66.65
2023-02-05T00:21:52.273Z,66.37
2023-02-05T00:24:26.880Z,66.73
2023-02-05T00:26:59.778Z,66.58
2023-02-05T00:29:32.632Z,66.75
2023-02-05T00:32:05.948Z,66.96
2023-02-05T00:34:38.801Z,67.34
2023-02-05T00:37:12.142Z,67.15
2023-02-05T00:39:46.387Z,67.55
2023-02-05T00:42:19.272Z,67.36
2023-02-05T00:44:52.112Z,66.69
2023-02-05T00:47:24.989Z,66.93
2023-02-05T00:49:57.956Z,67.16
2023-02-05T00:52:30.926Z,67.13
2023-02-05T00:55:06.477Z,66.47
2023-02-05T00:57:39.386Z,66.58
2023-02-05T01:00:13.331Z,67.11
2023-02-05T01:02:46.684Z,66.21
2023-02-05T01:05:19.728Z,66.85
2023-02-05T01:07:52.814Z,66.19
2023-02-05T01:10:27.229Z,66.11
2023-02-05T01:13:00.234Z,66.59
2023-02-05T01:15:33.874Z,66.60
2023-02-05T01:18:07.693Z,65.95
2023-02-05T01:20:41.690Z,66.43
2023-02-05T01:23:14.572Z,66.50
2023-02-05T01:25:48.862Z,65.93
2023-02-05T01:28:22.243Z,65.81
2023-02-05T01:30:55.237Z,66.05
2023-02-05T01:33:28.242Z,66.32
2023-02-05T01:36:01.335Z,65.82
2023-02-05T01:38:34.270Z,66.01
2023-02-05T01:41:09.255Z,66.53
2023-02-05T01:43:42.401Z,65.80
2023-02-05T01:46:22.692Z,66.45
2023-02-05T01:49:00.196Z,66.48
2023-02-05T01:51:37.073Z,65.79
2023-02-05T01:54:11.149Z,66.29
2023-02-05T01:56:51.038Z,65.72
2023-02-05T01:59:29.292Z,65.94
2023-02-05T02:02:06.467Z,65.54
2023-02-05T02:04:42.001Z,65.96
2023-02-05T02:07:18.152Z,66.02
2023-02-05T02:09:54.756Z,65.93
2023-02-05T02:12:32.774Z,65.83
2023-02-05T02:15:10.238Z,65.25
2023-02-05T02:17:47.576Z,65.52
2023-02-05T02:20:23.534Z,65.96
2023-02-05T02:23:14.158Z,65.13
2023-02-05T02:25:58.132Z,65.35
2023-02-05T02:28:40.305Z,65.16
2023-02-05T02:31:17.628Z,64.82
2023-02-05T02:33:57.717Z,64.36
2023-02-05T02:36:35.852Z,63.81
2023-02-05T02:39:14.464Z,63.91
2023-02-05T02:41:51.831Z,64.45
2023-02-05T02:44:33.965Z,64.60
2023-02-05T02:47:12.693Z,64.74
2023-02-05T02:49:49.634Z,64.62
2023-02-05T02:52:25.826Z,64.61
2023-02-05T02:55:05.557Z,64.68
2023-02-05T02:57:42.279Z,64.15
2023-02-05T03:00:21.367Z,64.60
2023-02-05T03:02:59.373Z,64.78
2023-02-05T03:05:33.524Z,64.58
2023-02-05T03:08:12.592Z,64.66
2023-02-05T03:10:51.937Z,64.94
2023-02-05T03:13:24.983Z,64.98
2023-02-05T03:15:59.451Z,64.57
2023-02-05T03:18:32.994Z,64.69
2023-02-05T03:21:11.041Z,65.18
2023-02-05T03:23:44.051Z,64.98
2023-02-05T03:26:36.205Z,64.92
2023-02-05T03:29:11.614Z,65.03
2023-02-05T03:31:55.730Z,65.03
2023-02-05T03:34:42.205Z,65.11
2023-02-05T03:37:19.668Z,65.17
2023-02-05T03:40:01.121Z,65.02
2023-02-05T03:42:46.631Z,65.06
2023-02-05T03:45:35.085Z,65.12
2023-02-05T03:48:43.687Z,65.23
2023-02-05T03:51:30.674Z,65.16
2023-02-05T03:54:10.286Z,65.36
2023-02-05T03:57:03.338Z,65.49
2023-02-05T03:59:37.803Z,65.55
2023-02-05T04:02:11.508Z,65.89
2023-02-05T04:04:44.379Z,65.70
2023-02-05T04:07:18.889Z,65.93
2023-02-05T04:09:51.768Z,65.91
2023-02-05T04:12:24.659Z,66.04
2023-02-05T04:14:57.587Z,66.12
2023-02-05T04:17:30.518Z,66.19
2023-02-05T04:20:03.556Z,66.21
2023-02-05T04:22:37.864Z,66.45
2023-02-05T04:25:10.711Z,66.56
2023-02-05T04:27:43.730Z,66.56
2023-02-05T04:30:16.603Z,66.36
2023-02-05T04:32:49.521Z,66.55
2023-02-05T04:35:22.368Z,66.97
2023-02-05T04:37:56.853Z,67.27
2023-02-05T04:40:29.999Z,67.86
2023-02-05T04:43:03.073Z,68.22
2023-02-05T04:45:37.346Z,68.63
2023-02-05T04:48:10.180Z,69.20
2023-02-05T04:50:43.124Z,69.23
2023-02-05T04:53:17.376Z,69.33
2023-02-05T04:55:50.247Z,69.46
2023-02-05T04:58:23.235Z,69.47
2023-02-05T05:00:56.162Z,69.36
2023-02-05T05:03:29.180Z,69.13
2023-02-05T05:06:05.743Z,68.98
2023-02-05T05:08:40.410Z,68.79
2023-02-05T05:11:15.222Z,68.76
2023-02-05T05:13:49.412Z,68.55
2023-02-05T05:16:22.384Z,68.72
2023-02-05T05:18:55.339Z,68.27
2023-02-05T05:21:28.268Z,68.13
2023-02-05T05:24:02.722Z,68.67
2023-02-05T05:26:35.668Z,68.26
2023-02-05T05:29:08.545Z,67.46
2023-02-05T05:31:41.513Z,66.95
2023-02-05T05:34:14.453Z,66.42
2023-02-05T05:36:47.767Z,65.80
2023-02-05T05:39:40.001Z,65.71
2023-02-05T05:42:30.952Z,65.86
2023-02-05T05:45:04.095Z,65.82
2023-02-05T05:47:36.967Z,65.88
2023-02-05T05:50:10.227Z,65.93
2023-02-05T05:52:43.117Z,65.59
2023-02-05T05:55:17.666Z,65.53
2023-02-05T05:57:50.489Z,65.42
2023-02-05T06:00:23.563Z,65.45
2023-02-05T06:02:56.529Z,65.47
2023-02-05T06:05:29.547Z,65.29
2023-02-05T06:08:02.490Z,65.89
2023-02-05T06:10:36.946Z,65.74
2023-02-05T06:13:09.829Z,66.07
2023-02-05T06:15:43.067Z,66.55
2023-02-05T06:18:16.013Z,66.39
2023-02-05T06:20:48.971Z,66.73
2023-02-05T06:23:22.003Z,66.85
2023-02-05T06:25:56.353Z,67.02
2023-02-05T06:28:29.366Z,67.04
2023-02-05T06:31:02.536Z,67.25
2023-02-05T06:33:35.582Z,66.88
2023-02-05T06:36:09.127Z,66.81
2023-02-05T06:38:41.992Z,66.63
2023-02-05T06:41:16.353Z,66.86
2023-02-05T06:43:49.558Z,66.97
2023-02-05T06:46:22.578Z,66.46
2023-02-05T06:48:55.466Z,66.63
2023-02-05T06:51:28.598Z,66.39
2023-02-05T06:54:01.782Z,66.40
2023-02-05T06:56:36.458Z,66.29
2023-02-05T06:59:09.348Z,66.42
2023-02-05T07:01:42.280Z,65.85
2023-02-05T07:04:15.304Z,66.00
2023-02-05T07:06:48.207Z,66.12
2023-02-05T07:09:21.080Z,65.87
2023-02-05T07:11:55.718Z,65.70
2023-02-05T07:14:28.601Z,65.91
2023-02-05T07:17:01.479Z,66.03
2023-02-05T07:19:34.401Z,65.79
2023-02-05T07:22:07.374Z,65.74
2023-02-05T07:24:40.239Z,65.58
2023-02-05T07:27:14.977Z,65.80
2023-02-05T07:29:47.867Z,65.93
2023-02-05T07:32:21.075Z,66.16
2023-02-05T07:34:53.914Z,66.33
2023-02-05T07:37:26.804Z,66.45
2023-02-05T07:39:59.775Z,66.61
2023-02-05T07:42:34.010Z,67.08
2023-02-05T07:45:07.605Z,67.01
2023-02-05T07:47:40.522Z,67.09
2023-02-05T07:50:13.413Z,67.41
2023-02-05T07:52:46.332Z,67.49
2023-02-05T07:55:19.261Z,67.64
2023-02-05T07:57:53.528Z,67.46
2023-02-05T08:00:26.526Z,67.50
2023-02-05T08:02:59.499Z,67.55
2023-02-05T08:05:32.622Z,67.22
2023-02-05T08:08:06.358Z,67.25
2023-02-05T08:10:39.233Z,67.07
2023-02-05T08:13:13.529Z,66.77
2023-02-05T08:15:46.589Z,66.50
2023-02-05T08:18:19.519Z,65.87
2023-02-05T08:20:53.592Z,65.26
2023-02-05T08:23:26.579Z,65.33
2023-02-05T08:26:00.570Z,65.43
2023-02-05T08:28:34.934Z,65.39
2023-02-05T08:31:12.005Z,65.60
2023-02-05T08:33:45.852Z,65.94
2023-02-05T08:36:18.773Z,66.38
2023-02-05T08:38:51.714Z,66.02
2023-02-05T08:41:24.591Z,66.32
2023-02-05T08:43:58.992Z,66.10
2023-02-05T08:46:43.851Z,66.93
2023-02-05T08:49:22.537Z,66.94
2023-02-05T08:51:55.493Z,66.94
2023-02-05T08:54:28.407Z,67.04
2023-02-05T08:57:01.293Z,67.54
2023-02-05T08:59:36.020Z,67.32
2023-02-05T09:02:09.134Z,66.87
2023-02-05T09:04:42.296Z,66.45
2023-02-05T09:07:15.414Z,66.69
2023-02-05T09:09:48.666Z,65.97
2023-02-05T09:12:21.522Z,66.01
2023-02-05T09:14:55.946Z,65.83
2023-02-05T09:17:28.936Z,65.99
2023-02-05T09:20:01.933Z,66.30
2023-02-05T09:22:34.840Z,66.47
2023-02-05T09:25:08.713Z,66.62
2023-02-05T09:27:41.636Z,66.31
2023-02-05T09:30:16.262Z,66.61
2023-02-05T09:32:49.166Z,66.67
2023-02-05T09:35:22.261Z,66.41
2023-02-05T09:37:55.135Z,66.13
2023-02-05T09:40:31.591Z,65.94
2023-02-05T09:43:16.154Z,66.28
2023-02-05T09:45:57.814Z,65.60
2023-02-05T09:48:53.444Z,65.42
2023-02-05T09:51:34.984Z,65.30
2023-02-05T09:54:17.142Z,64.75
2023-02-05T09:56:53.705Z,64.74
2023-02-05T09:59:29.481Z,64.62
2023-02-05T10:02:23.076Z,64.57
2023-02-05T10:04:56.217Z,64.78
2023-02-05T10:07:42.398Z,64.41
2023-02-05T10:10:24.696Z,64.34
2023-02-05T10:13:27.292Z,64.71
2023-02-05T10:16:28.032Z,64.15
2023-02-05T10:19:23.022Z,63.97
2023-02-05T10:22:13.600Z,64.45
2023-02-05T10:25:05.168Z,64.25
2023-02-05T10:27:48.039Z,63.99
2023-02-05T10:30:26.595Z,63.90
2023-02-05T10:33:01.043Z,63.97
2023-02-05T10:35:45.465Z,63.17
2023-02-05T10:38:23.755Z,63.69
2023-02-05T10:41:00.649Z,63.40
2023-02-05T10:43:39.578Z,63.14
2023-02-05T10:46:15.031Z,63.26
2023-02-05T10:48:52.093Z,62.78
2023-02-05T10:51:33.355Z,62.98
2023-02-05T10:54:12.519Z,63.14
2023-02-05T10:56:45.851Z,62.28
2023-02-05T10:59:23.715Z,62.17
2023-02-05T11:01:57.799Z,61.96
2023-02-05T11:04:38.969Z,61.65
2023-02-05T11:07:14.863Z,62.53
2023-02-05T11:09:47.731Z,62.60
2023-02-05T11:12:27.860Z,61.50
2023-02-05T11:15:03.241Z,61.27
2023-02-05T11:17:39.415Z,60.88
2023-02-05T11:20:26.286Z,60.19
2023-02-05T11:23:18.663Z,60.92
2023-02-05T11:25:56.444Z,61.05
2023-02-05T11:28:31.225Z,60.92
2023-02-05T11:31:21.548Z,60.62
2023-02-05T11:34:12.063Z,61.18
2023-02-05T11:36:51.224Z,60.85
2023-02-05T11:39:34.270Z,61.03
2023-02-05T11:42:12.308Z,61.42
2023-02-05T11:44:50.352Z,61.36
2023-02-05T11:47:28.453Z,61.81
2023-02-05T11:50:02.295Z,61.93
2023-02-05T11:52:38.785Z,61.76
2023-02-05T11:55:25.866Z,61.93
2023-02-05T11:58:04.005Z,62.69
2023-02-05T12:00:36.970Z,62.36
2023-02-05T12:03:18.525Z,61.83
2023-02-05T12:05:56.119Z,62.99
2023-02-05T12:08:38.080Z,62.11
2023-02-05T12:11:28.583Z,61.66
2023-02-05T12:14:12.761Z,62.24
2023-02-05T12:16:54.785Z,61.93
2023-02-05T12:19:35.719Z,62.81
2023-02-05T12:22:17.677Z,62.80
2023-02-05T12:25:03.653Z,63.21
2023-02-05T12:27:55.612Z,62.15
2023-02-05T12:30:49.308Z,62.58
2023-02-05T12:33:40.790Z,61.76
2023-02-05T12:36:27.170Z,61.70
2023-02-05T12:39:15.634Z,62.36
2023-02-05T12:42:07.690Z,61.58
2023-02-05T12:44:55.175Z,62.10
2023-02-05T12:47:43.718Z,61.66
2023-02-05T12:50:37.345Z,62.10
2023-02-05T12:53:24.606Z,61.97
2023-02-05T12:56:20.069Z,62.09
2023-02-05T12:58:57.267Z,61.74
2023-02-05T13:01:40.594Z,61.70
2023-02-05T13:04:25.043Z,61.36
2023-02-05T13:07:05.767Z,62.06
2023-02-05T13:09:47.560Z,62.47
2023-02-05T13:12:25.795Z,62.17
2023-02-05T13:15:08.449Z,62.36
2023-02-05T13:17:46.698Z,62.31
2023-02-05T13:20:46.819Z,62.48
2023-02-05T13:23:37.526Z,62.48
2023-02-05T13:26:31.797Z,62.82
2023-02-05T13:29:10.276Z,62.67
2023-02-05T13:31:48.670Z,63.28
2023-02-05T13:34:21.813Z,63.15
2023-02-05T13:37:22.456Z,63.10
2023-02-05T13:40:16.818Z,62.94
2023-02-05T13:43:07.990Z,63.47
2023-02-05T13:46:17.962Z,63.34
2023-02-05T13:49:18.255Z,63.59
2023-02-05T13:52:11.786Z,63.06
2023-02-05T13:55:12.327Z,63.00
2023-02-05T13:58:22.318Z,63.08
2023-02-05T14:01:01.394Z,63.27
2023-02-05T14:03:38.268Z,63.26
2023-02-05T14:06:22.831Z,63.43
2023-02-05T14:09:02.641Z,63.54
2023-02-05T14:11:56.157Z,63.37
2023-02-05T14:14:33.486Z,63.60
2023-02-05T14:17:39.549Z,63.81
2023-02-05T14:20:34.063Z,63.87
2023-02-05T14:23:39.376Z,64.17
2023-02-05T14:26:13.898Z,64.54
2023-02-05T14:28:49.630Z,64.30
2023-02-05T14:31:59.288Z,64.25
2023-02-05T14:35:02.588Z,63.86
2023-02-05T14:37:40.961Z,64.39
2023-02-05T14:40:23.875Z,64.21
2023-02-05T14:43:09.840Z,64.28
2023-02-05T14:45:51.070Z,63.83
2023-02-05T14:48:28.240Z,64.26
2023-02-05T14:51:06.796Z,64.42
2023-02-05T14:53:40.150Z,64.74
2023-02-05T14:56:25.889Z,63.80
2023-02-05T14:59:05.738Z,63.82
2023-02-05T15:01:50.329Z,64.37
2023-02-05T15:04:35.313Z,64.63
2023-02-05T15:07:12.791Z,64.68
2023-02-05T15:09:51.897Z,65.13
2023-02-05T15:12:36.734Z,65.13
2023-02-05T15:15:33.540Z,65.01
2023-02-05T15:18:15.599Z,64.95
2023-02-05T15:20:51.105Z,65.11
2023-02-05T15:23:36.177Z,64.75
2023-02-05T15:26:20.826Z,64.91
2023-02-05T15:29:07.009Z,65.12
2023-02-05T15:31:45.619Z,65.28
2023-02-05T15:34:32.025Z,65.27
2023-02-05T15:37:15.925Z,65.24
2023-02-05T15:39:53.374Z,65.49
2023-02-05T15:42:33.082Z,65.49
2023-02-05T15:45:19.033Z,65.53
2023-02-05T15:48:01.443Z,65.59
2023-02-05T15:50:37.354Z,65.66
2023-02-05T15:53:17.221Z,65.98
2023-02-05T15:55:52.845Z,65.75
2023-02-05T15:58:27.620Z,65.95
2023-02-05T16:01:00.620Z,65.30
2023-02-05T16:03:38.964Z,65.75
2023-02-05T16:06:19.943Z,65.33
2023-02-05T16:08:53.648Z,65.96
2023-02-05T16:11:28.719Z,66.00
2023-02-05T16:14:06.555Z,65.90
2023-02-05T16:16:42.001Z,65.95
2023-02-05T16:19:22.700Z,65.96
2023-02-05T16:22:03.467Z,66.44
2023-02-05T16:24:41.236Z,66.14
2023-02-05T16:27:18.744Z,65.72
2023-02-05T16:29:56.224Z,66.06
2023-02-05T16:32:32.801Z,65.91
2023-02-05T16:35:14.745Z,65.91
2023-02-05T16:37:47.665Z,65.88
2023-02-05T16:40:35.638Z,65.62
2023-02-05T16:43:21.939Z,65.07
2023-02-05T16:46:26.683Z,64.76
2023-02-05T16:49:02.341Z,64.94
2023-02-05T16:51:39.697Z,65.36
2023-02-05T16:54:33.064Z,65.04
2023-02-05T16:57:10.829Z,65.30
2023-02-05T16:59:51.864Z,65.29
2023-02-05T17:02:29.703Z,64.88
2023-02-05T17:05:05.268Z,65.37
2023-02-05T17:07:39.550Z,65.08
2023-02-05T17:10:19.759Z,65.37
2023-02-05T17:12:58.027Z,65.29
2023-02-05T17:15:37.203Z,65.71
2023-02-05T17:18:28.259Z,65.62
2023-02-05T17:21:22.581Z,66.06
2023-02-05T17:23:59.492Z,66.17
2023-02-05T17:26:34.920Z,66.44
2023-02-05T17:29:09.960Z,66.10
2023-02-05T17:31:43.062Z,65.91
2023-02-05T17:34:17.439Z,66.15
2023-02-05T17:36:51.528Z,66.49
2023-02-05T17:39:25.814Z,66.75
2023-02-05T17:42:04.733Z,66.42
2023-02-05T17:44:37.928Z,66.41
2023-02-05T17:47:11.146Z,66.59
2023-02-05T17:49:44.281Z,66.60
2023-02-05T17:52:17.400Z,66.47
2023-02-05T17:54:51.664Z,66.61
2023-02-05T17:57:24.605Z,67.02
2023-02-05T17:59:57.444Z,66.92
2023-02-05T18:02:30.530Z,66.93
2023-02-05T18:05:03.483Z,67.42
2023-02-05T18:07:40.466Z,67.28
2023-02-05T18:10:16.791Z,66.98
2023-02-05T18:12:49.694Z,66.91
2023-02-05T18:15:23.384Z,66.53
2023-02-05T18:17:56.264Z,66.78
2023-02-05T18:20:29.197Z,66.39
2023-02-05T18:23:03.219Z,66.78
2023-02-05T18:25:39.529Z,66.60
2023-02-05T18:28:12.646Z,66.59
2023-02-05T18:30:45.633Z,67.42
2023-02-05T18:33:18.946Z,67.10
2023-02-05T18:35:51.905Z,67.40
2023-02-05T18:38:25.168Z,67.47
2023-02-05T18:41:07.046Z,67.63
2023-02-05T18:43:39.916Z,66.92
2023-02-05T18:46:15.027Z,66.74
2023-02-05T18:48:49.315Z,67.33
2023-02-05T18:51:24.113Z,67.59
2023-02-05T18:53:58.624Z,67.18
2023-02-05T18:56:34.498Z,67.06
2023-02-05T18:59:09.626Z,67.07
2023-02-05T19:01:43.690Z,67.34
2023-02-05T19:04:18.574Z,67.19
2023-02-05T19:06:53.664Z,66.96
2023-02-05T19:09:28.419Z,67.38
2023-02-05T19:12:02.708Z,67.36
2023-02-05T19:14:35.669Z,67.10
2023-02-05T19:17:08.713Z,67.00
2023-02-05T19:19:41.722Z,67.07
2023-02-05T19:22:14.565Z,67.11
2023-02-05T19:24:47.587Z,67.21
2023-02-05T19:27:21.945Z,67.38
2023-02-05T19:29:55.057Z,67.07
2023-02-05T19:32:27.935Z,67.27
2023-02-05T19:35:02.337Z,66.80
2023-02-05T19:37:35.492Z,67.25
2023-02-05T19:40:09.502Z,67.24
2023-02-05T19:42:44.714Z,66.80
2023-02-05T19:45:17.759Z,66.51
2023-02-05T19:47:50.708Z,66.73
2023-02-05T19:50:23.649Z,66.96
2023-02-05T19:52:56.512Z,66.38
2023-02-05T19:55:29.562Z,66.53
2023-02-05T19:58:04.285Z,66.66
2023-02-05T20:00:37.436Z,66.73
2023-02-05T20:03:10.435Z,67.02
2023-02-05T20:05:43.364Z,66.90
2023-02-05T20:08:16.240Z,66.47
2023-02-05T20:10:58.232Z,66.69
2023-02-05T20:13:34.600Z,66.41
2023-02-05T20:16:11.524Z,66.81
2023-02-05T20:18:45.330Z,66.21
2023-02-05T20:21:19.245Z,66.77
2023-02-05T20:23:52.638Z,66.93
2023-02-05T20:26:26.849Z,66.98
2023-02-05T20:29:18.862Z,66.50
2023-02-05T20:31:52.887Z,66.62
2023-02-05T20:34:30.635Z,66.82
2023-02-05T20:37:06.094Z,66.26
2023-02-05T20:39:42.056Z,66.82
2023-02-05T20:42:16.183Z,66.38
2023-02-05T20:44:50.443Z,66.33
2023-02-05T20:47:23.434Z,66.82
2023-02-05T20:49:56.319Z,66.56
2023-02-05T20:52:29.240Z,66.74
2023-02-05T20:55:02.106Z,66.64
2023-02-05T20:57:34.973Z,66.69
2023-02-05T21:00:10.908Z,66.42
2023-02-05T21:02:43.822Z,66.30
2023-02-05T21:05:16.822Z,65.98
2023-02-05T21:07:49.747Z,66.37
2023-02-05T21:10:22.862Z,66.16
2023-02-05T21:12:55.764Z,66.59
2023-02-05T21:15:31.395Z,66.38
2023-02-05T21:18:04.450Z,66.82
2023-02-05T21:20:37.362Z,66.88
2023-02-05T21:23:10.388Z,66.25
2023-02-05T21:25:43.344Z,66.43
2023-02-05T21:28:18.775Z,66.69
2023-02-05T21:30:53.409Z,66.30
2023-02-05T21:33:26.636Z,66.75
2023-02-05T21:36:03.917Z,66.66
2023-02-05T21:38:37.842Z,66.97
2023-02-05T21:41:12.786Z,66.73
2023-02-05T21:43:49.540Z,66.57
2023-02-05T21:46:24.993Z,67.12
2023-02-05T21:48:59.870Z,66.85
2023-02-05T21:51:35.708Z,66.58
2023-02-05T21:54:08.654Z,66.47
2023-02-05T21:56:43.698Z,66.96
2023-02-05T21:59:16.658Z,66.59
2023-02-05T22:01:50.910Z,66.28
2023-02-05T22:04:23.801Z,66.81
2023-02-05T22:06:56.738Z,66.27
2023-02-05T22:09:29.817Z,66.52
2023-02-05T22:12:03.705Z,66.40
2023-02-05T22:14:36.793Z,66.84
2023-02-05T22:17:11.066Z,66.47
2023-02-05T22:19:45.027Z,66.45
2023-02-05T22:22:17.882Z,65.82
2023-02-05T22:24:50.898Z,65.74
2023-02-05T22:27:23.878Z,65.76
2023-02-05T22:29:56.858Z,65.79
2023-02-05T22:32:32.046Z,65.67
2023-02-05T22:35:05.254Z,66.04
2023-02-05T22:37:38.353Z,65.94
2023-02-05T22:40:12.334Z,66.04
2023-02-05T22:42:45.158Z,66.66
2023-02-05T22:45:18.143Z,66.12
2023-02-05T22:47:52.392Z,65.88
2023-02-05T22:50:25.241Z,65.97
2023-02-05T22:52:58.133Z,66.26
2023-02-05T22:55:31.025Z,66.48
2023-02-05T22:58:04.154Z,66.19
2023-02-05T23:00:37.290Z,66.34
2023-02-05T23:03:11.610Z,66.06
2023-02-05T23:05:44.515Z,65.89
2023-02-05T23:08:17.791Z,65.64
2023-02-05T23:10:50.733Z,65.62
2023-02-05T23:13:23.598Z,65.99
2023-02-05T23:15:56.480Z,65.97
2023-02-05T23:18:30.718Z,66.09
2023-02-05T23:21:08.522Z,65.83
2023-02-05T23:23:41.657Z,65.47
2023-02-05T23:26:16.887Z,65.68
2023-02-05T23:28:50.693Z,65.97
2023-02-05T23:31:25.148Z,65.52
2023-02-05T23:33:59.765Z,65.47
2023-02-05T23:36:32.766Z,65.47
2023-02-05T23:39:05.881Z,65.41
2023-02-05T23:41:39.969Z,65.65
2023-02-05T23:44:14.261Z,65.58
2023-02-05T23:46:49.203Z,65.93
2023-02-05T23:49:23.615Z,65.71
2023-02-05T23:51:56.911Z,65.71
2023-02-05T23:54:29.759Z,65.92
2023-02-05T23:57:02.856Z,65.56
2023-02-05T23:59:35.854Z,65.36
